createdAt,value
2018-12-11T00:00:23.511Z,1.53
2018-12-11T00:03:13.218Z,1.30
2018-12-11T00:06:00.347Z,1.93
2018-12-11T00:08:47.900Z,1.63
2018-12-11T00:11:35.059Z,1.83
2018-12-11T00:17:39.711Z,1.97
2018-12-11T00:20:27.543Z,1.60
2018-12-11T00:23:14.779Z,1.90
2018-12-11T00:26:02.580Z,2.00
2018-12-11T00:28:49.491Z,3.00
2018-12-11T00:31:37.380Z,2.03
2018-12-11T00:34:25.543Z,1.70
2018-12-11T00:37:12.989Z,1.98
2018-12-11T00:40:03.305Z,1.77
2018-12-11T00:42:50.190Z,1.50
2018-12-11T00:48:43.433Z,1.70
2018-12-11T00:51:32.147Z,1.10
2018-12-11T00:54:20.183Z,1.87
2018-12-11T00:57:06.786Z,1.70
2018-12-11T00:59:55.115Z,1.93
2018-12-11T01:02:42.053Z,2.03
2018-12-11T01:05:28.820Z,1.30
2018-12-11T01:08:15.662Z,2.10
2018-12-11T01:11:02.532Z,2.43
2018-12-11T01:13:49.514Z,2.78
2018-12-11T01:16:37.619Z,2.87
2018-12-11T01:19:30.157Z,2.00
2018-12-11T01:22:17.517Z,2.10
2018-12-11T01:25:04.813Z,2.63
2018-12-11T01:31:04.957Z,2.87
2018-12-11T01:33:56.741Z,2.70
2018-12-11T01:36:43.858Z,3.00
2018-12-11T01:39:32.000Z,2.93
2018-12-11T01:42:26.885Z,3.20
2018-12-11T01:45:14.856Z,2.87
2018-12-11T01:48:18.478Z,3.83
2018-12-11T01:51:05.492Z,2.20
2018-12-11T01:54:00.886Z,2.73
2018-12-11T01:56:48.521Z,1.77
2018-12-11T02:02:48.254Z,1.40
2018-12-11T02:05:35.587Z,2.10
2018-12-11T02:08:23.732Z,2.97
2018-12-11T02:11:10.540Z,2.17
2018-12-11T02:14:03.763Z,1.93
2018-12-11T02:16:51.199Z,1.83
2018-12-11T02:19:42.018Z,2.43
2018-12-11T02:22:28.844Z,2.97
2018-12-11T02:25:17.136Z,2.93
2018-12-11T02:28:20.119Z,3.00
2018-12-11T02:31:07.370Z,2.63
2018-12-11T02:33:54.187Z,3.23
2018-12-11T02:36:40.900Z,3.23
2018-12-11T02:39:28.509Z,2.23
2018-12-11T02:42:17.182Z,2.33
2018-12-11T02:45:04.413Z,2.20
2018-12-11T02:47:51.434Z,2.10
2018-12-11T02:50:39.826Z,3.30
2018-12-11T02:53:26.789Z,2.83
2018-12-11T02:56:13.624Z,2.63
2018-12-11T02:59:00.877Z,2.23
2018-12-11T03:01:47.674Z,2.43
2018-12-11T03:07:59.329Z,3.03
2018-12-11T03:10:46.281Z,1.90
2018-12-11T03:13:33.664Z,2.17
2018-12-11T03:16:28.532Z,2.43
2018-12-11T03:19:15.477Z,3.08
2018-12-11T03:22:02.623Z,2.37
2018-12-11T03:24:50.669Z,2.20
2018-12-11T03:27:37.796Z,2.30
2018-12-11T03:30:25.333Z,2.53
2018-12-11T03:36:19.152Z,2.20
2018-12-11T03:39:06.663Z,2.57
2018-12-11T03:41:58.708Z,2.70
2018-12-11T03:44:45.822Z,2.30
2018-12-11T03:47:34.311Z,2.10
2018-12-11T03:50:24.858Z,2.50
2018-12-11T03:53:11.951Z,2.67
2018-12-11T03:55:59.091Z,3.95
2018-12-11T04:01:53.047Z,2.77
2018-12-11T04:04:40.937Z,2.40
2018-12-11T04:07:28.294Z,3.67
2018-12-11T04:10:15.622Z,2.73
2018-12-11T04:13:03.000Z,2.80
2018-12-11T04:15:50.477Z,2.80
2018-12-11T04:18:37.506Z,2.60
2018-12-11T04:21:24.803Z,2.60
2018-12-11T04:24:12.269Z,1.93
2018-12-11T04:26:59.045Z,1.93
2018-12-11T04:29:45.902Z,3.63
2018-12-11T04:32:32.773Z,3.03
2018-12-11T04:35:19.678Z,2.83
2018-12-11T04:38:06.466Z,2.60
2018-12-11T04:40:53.903Z,1.90
2018-12-11T04:43:40.772Z,3.35
2018-12-11T04:46:27.765Z,3.33
2018-12-11T04:49:15.509Z,3.05
2018-12-11T04:52:02.757Z,2.77
2018-12-11T04:54:49.973Z,2.33
2018-12-11T04:57:37.054Z,2.90
2018-12-11T05:00:25.862Z,3.42
2018-12-11T05:03:12.727Z,2.80
2018-12-11T05:05:59.927Z,3.43
2018-12-11T05:08:58.467Z,2.47
2018-12-11T05:11:45.693Z,2.50
2018-12-11T05:14:32.838Z,2.83
2018-12-11T05:17:19.790Z,2.30
2018-12-11T05:20:06.926Z,2.77
2018-12-11T05:22:54.436Z,2.97
2018-12-11T05:25:42.105Z,2.60
2018-12-11T05:28:29.066Z,2.27
2018-12-11T05:31:16.045Z,3.10
2018-12-11T05:34:03.024Z,2.83
2018-12-11T05:36:51.636Z,2.90
2018-12-11T05:39:38.397Z,2.90
2018-12-11T05:42:25.264Z,3.47
2018-12-11T05:45:14.421Z,3.03
2018-12-11T05:48:01.396Z,3.33
2018-12-11T05:50:49.116Z,3.43
2018-12-11T05:53:36.380Z,2.80
2018-12-11T05:56:23.937Z,3.50
2018-12-11T05:59:10.993Z,2.90
2018-12-11T06:01:58.058Z,2.63
2018-12-11T06:04:45.172Z,3.17
2018-12-11T06:07:33.314Z,3.33
2018-12-11T06:10:20.347Z,2.23
2018-12-11T06:13:07.334Z,3.20
2018-12-11T06:15:54.206Z,2.80
2018-12-11T06:18:49.050Z,2.83
2018-12-11T06:21:38.997Z,2.60
2018-12-11T06:24:26.280Z,2.43
2018-12-11T06:27:13.803Z,2.40
2018-12-11T06:30:00.877Z,2.27
2018-12-11T06:32:49.175Z,2.90
2018-12-11T06:35:36.378Z,3.10
2018-12-11T06:38:23.738Z,2.50
2018-12-11T06:41:11.215Z,2.77
2018-12-11T06:43:58.513Z,2.87
2018-12-11T06:46:46.172Z,3.20
2018-12-11T06:49:33.044Z,2.60
2018-12-11T06:52:21.641Z,4.03
2018-12-11T06:55:10.575Z,3.33
2018-12-11T06:57:57.911Z,2.33
2018-12-11T07:00:45.337Z,2.30
2018-12-11T07:03:32.211Z,2.40
2018-12-11T07:06:19.624Z,2.27
2018-12-11T07:09:10.638Z,2.90
2018-12-11T07:12:01.855Z,2.80
2018-12-11T07:14:49.184Z,2.50
2018-12-11T07:17:36.110Z,2.57
2018-12-11T07:20:23.509Z,2.50
2018-12-11T07:23:11.430Z,2.13
2018-12-11T07:25:58.275Z,2.50
2018-12-11T07:28:45.526Z,2.40
2018-12-11T07:31:32.958Z,2.20
2018-12-11T07:34:20.508Z,2.80
2018-12-11T07:37:10.728Z,2.23
2018-12-11T07:40:00.793Z,2.63
2018-12-11T07:42:53.261Z,2.53
2018-12-11T07:45:40.570Z,1.77
2018-12-11T07:48:29.318Z,3.03
2018-12-11T07:51:16.145Z,2.77
2018-12-11T07:57:09.291Z,2.47
2018-12-11T07:59:56.465Z,2.27
2018-12-11T08:02:43.897Z,3.17
2018-12-11T08:05:31.163Z,2.50
2018-12-11T08:08:18.672Z,2.60
2018-12-11T08:11:06.684Z,2.20
2018-12-11T08:17:07.504Z,3.47
2018-12-11T08:19:55.824Z,2.90
2018-12-11T08:34:15.634Z,3.37
2018-12-11T08:40:11.340Z,2.60
2018-12-11T08:52:23.006Z,2.80
2018-12-11T08:55:10.205Z,2.80
2018-12-11T08:57:56.975Z,2.60
2018-12-11T09:00:43.975Z,3.10
2018-12-11T09:03:30.953Z,3.87
2018-12-11T09:12:05.193Z,2.23
2018-12-11T09:15:08.064Z,2.43
2018-12-11T09:18:03.193Z,3.17
2018-12-11T09:20:53.339Z,2.47
2018-12-11T09:23:42.514Z,3.07
2018-12-11T09:26:29.832Z,2.97
2018-12-11T09:29:16.958Z,2.97
2018-12-11T09:32:04.396Z,2.50
2018-12-11T09:38:04.712Z,2.90
2018-12-11T09:44:05.407Z,2.77
2018-12-11T09:53:18.050Z,2.57
2018-12-11T09:56:05.070Z,2.20
2018-12-11T09:58:52.299Z,3.50
2018-12-11T10:01:41.394Z,3.00
2018-12-11T10:07:08.910Z,2.50
2018-12-11T10:09:55.925Z,2.87
2018-12-11T10:12:42.735Z,4.07
2018-12-11T10:15:29.955Z,3.07
2018-12-11T10:18:17.193Z,2.30
2018-12-11T10:21:04.187Z,2.97
2018-12-11T10:23:51.140Z,2.10
2018-12-11T10:26:38.427Z,2.00
2018-12-11T10:29:24.968Z,2.77
2018-12-11T10:32:12.214Z,4.10
2018-12-11T10:35:01.126Z,2.83
2018-12-11T10:37:46.781Z,4.07
2018-12-11T10:40:33.626Z,3.53
2018-12-11T10:43:20.630Z,3.80
2018-12-11T10:46:07.400Z,3.20
2018-12-11T10:48:56.210Z,3.13
2018-12-11T10:51:42.783Z,3.10
2018-12-11T10:54:29.495Z,3.37
2018-12-11T10:57:16.110Z,3.90
2018-12-11T11:00:02.651Z,3.33
2018-12-11T11:03:06.385Z,3.40
2018-12-11T11:05:53.414Z,3.40
2018-12-11T11:08:41.521Z,4.30
2018-12-11T11:11:29.437Z,3.97
2018-12-11T11:14:17.373Z,4.00
2018-12-11T11:17:05.214Z,3.87
2018-12-11T11:19:52.225Z,3.57
2018-12-11T11:22:42.495Z,4.17
2018-12-11T11:25:29.859Z,4.13
2018-12-11T11:28:18.203Z,4.57
2018-12-11T11:31:05.141Z,3.20
2018-12-11T11:33:56.603Z,3.80
2018-12-11T11:36:39.506Z,4.33
2018-12-11T11:39:26.853Z,3.97
2018-12-11T11:42:14.724Z,3.90
2018-12-11T11:45:05.254Z,5.10
2018-12-11T11:47:52.604Z,4.63
2018-12-11T11:50:39.222Z,4.53
2018-12-11T11:53:26.692Z,4.17
2018-12-11T11:56:13.301Z,4.10
2018-12-11T11:59:00.663Z,4.13
2018-12-11T12:01:47.672Z,4.07
2018-12-11T12:04:38.171Z,4.17
2018-12-11T12:07:26.595Z,4.10
2018-12-11T12:10:17.107Z,4.03
2018-12-11T12:13:04.530Z,3.53
2018-12-11T12:15:51.439Z,3.30
2018-12-11T12:18:39.948Z,4.10
2018-12-11T12:21:26.986Z,4.78
2018-12-11T12:24:13.984Z,3.67
2018-12-11T12:27:00.871Z,3.53
2018-12-11T12:30:03.843Z,3.07
2018-12-11T12:32:50.716Z,3.27
2018-12-11T12:35:37.392Z,3.43
2018-12-11T12:38:24.267Z,3.00
2018-12-11T12:41:11.092Z,3.90
2018-12-11T12:43:58.227Z,3.30
2018-12-11T12:46:45.158Z,2.60
2018-12-11T12:49:32.118Z,2.57
2018-12-11T12:52:19.489Z,3.47
2018-12-11T12:55:06.697Z,3.03
2018-12-11T12:57:53.866Z,3.70
2018-12-11T13:00:40.721Z,3.40
2018-12-11T13:03:30.251Z,3.13
2018-12-11T13:06:18.215Z,3.80
2018-12-11T13:09:05.437Z,3.17
2018-12-11T13:12:12.348Z,2.93
2018-12-11T13:15:07.197Z,4.00
2018-12-11T13:17:51.224Z,4.07
2018-12-11T13:20:40.798Z,3.70
2018-12-11T13:23:28.037Z,3.07
2018-12-11T13:26:19.767Z,2.83
2018-12-11T13:29:15.584Z,3.43
2018-12-11T13:32:08.493Z,3.17
2018-12-11T13:35:08.904Z,3.20
2018-12-11T13:37:59.066Z,3.00
2018-12-11T13:40:46.708Z,3.00
2018-12-11T13:46:44.398Z,2.33
2018-12-11T13:49:35.869Z,2.30
2018-12-11T13:52:25.899Z,2.53
2018-12-11T13:55:14.138Z,2.23
2018-12-11T13:58:07.823Z,2.60
2018-12-11T14:00:58.507Z,3.40
2018-12-11T14:03:46.181Z,2.20
2018-12-11T14:06:40.885Z,3.00
2018-12-11T14:09:43.388Z,1.90
2018-12-11T14:12:32.858Z,1.70
2018-12-11T14:15:21.313Z,1.47
2018-12-11T14:18:14.260Z,1.40
2018-12-11T14:24:08.756Z,2.07
2018-12-11T14:26:59.160Z,1.20
2018-12-11T14:29:56.841Z,1.83
2018-12-11T14:32:47.106Z,1.43
2018-12-11T14:35:34.525Z,2.20
2018-12-11T14:38:21.560Z,1.57
2018-12-11T14:41:09.906Z,1.60
2018-12-11T14:43:57.406Z,1.60
2018-12-11T14:46:48.806Z,1.83
2018-12-11T14:49:37.047Z,1.13
2018-12-11T14:52:24.632Z,1.52
2018-12-11T14:55:11.718Z,1.90
2018-12-11T14:57:58.697Z,1.20
2018-12-11T15:00:47.515Z,1.03
2018-12-11T15:03:42.151Z,2.03
2018-12-11T15:06:29.401Z,1.60
2018-12-11T15:09:37.820Z,1.27
2018-12-11T15:12:24.770Z,1.30
2018-12-11T15:15:13.597Z,1.30
2018-12-11T15:18:01.250Z,1.37
2018-12-11T15:20:51.212Z,1.67
2018-12-11T15:23:39.951Z,1.30
2018-12-11T15:26:33.621Z,1.43
2018-12-11T15:29:20.538Z,1.50
2018-12-11T15:32:07.385Z,1.10
2018-12-11T15:34:54.997Z,1.47
2018-12-11T15:37:50.546Z,1.40
2018-12-11T15:40:37.980Z,2.00
2018-12-11T15:43:24.833Z,1.83
2018-12-11T15:46:11.771Z,1.92
2018-12-11T15:49:01.610Z,1.83
2018-12-11T15:51:48.802Z,1.50
2018-12-11T15:54:36.478Z,1.87
2018-12-11T15:57:24.396Z,1.43
2018-12-11T16:00:11.852Z,1.37
2018-12-11T16:02:59.265Z,2.10
2018-12-11T16:05:46.656Z,2.40
2018-12-11T16:08:36.907Z,2.17
2018-12-11T16:14:27.479Z,1.70
2018-12-11T16:17:14.751Z,2.00
2018-12-11T16:20:01.644Z,1.67
2018-12-11T16:22:48.792Z,2.10
2018-12-11T16:25:35.714Z,2.37
2018-12-11T16:28:23.257Z,1.83
2018-12-11T16:31:10.016Z,2.10
2018-12-11T16:33:57.139Z,1.83
2018-12-11T16:36:45.648Z,2.20
2018-12-11T16:39:33.405Z,2.03
2018-12-11T16:42:21.264Z,2.70
2018-12-11T16:45:08.038Z,2.27
2018-12-11T16:47:55.350Z,2.50
2018-12-11T16:53:48.647Z,2.43
2018-12-11T16:56:38.171Z,1.87
2018-12-11T16:59:25.562Z,2.23
2018-12-11T17:02:12.193Z,2.07
2018-12-11T17:04:58.808Z,1.77
2018-12-11T17:07:46.670Z,2.35
2018-12-11T17:10:34.695Z,2.62
2018-12-11T17:13:24.823Z,1.80
2018-12-11T17:16:11.939Z,1.93
2018-12-11T17:18:58.717Z,1.97
2018-12-11T17:21:47.120Z,1.70
2018-12-11T17:24:44.395Z,2.03
2018-12-11T17:27:34.662Z,2.00
2018-12-11T17:30:22.222Z,1.93
2018-12-11T17:33:09.537Z,2.00
2018-12-11T17:39:03.673Z,2.03
2018-12-11T17:42:02.821Z,2.87
2018-12-11T17:44:57.178Z,2.75
2018-12-11T17:47:48.086Z,2.10
2018-12-11T17:50:39.718Z,1.87
2018-12-11T17:53:37.375Z,2.50
2018-12-11T17:56:24.120Z,2.50
2018-12-11T17:59:11.724Z,2.87
2018-12-11T18:05:11.814Z,2.33
2018-12-11T18:07:59.275Z,2.40
2018-12-11T18:10:47.252Z,2.83
2018-12-11T18:13:35.667Z,2.57
2018-12-11T18:16:25.618Z,2.57
2018-12-11T18:19:12.320Z,3.12
2018-12-11T18:21:58.978Z,3.20
2018-12-11T18:24:47.214Z,2.30
2018-12-11T18:27:34.179Z,2.70
2018-12-11T18:30:23.650Z,2.43
2018-12-11T18:33:11.443Z,2.50
2018-12-11T18:35:58.479Z,2.03
2018-12-11T18:38:45.756Z,3.30
2018-12-11T18:41:32.768Z,2.77
2018-12-11T18:44:21.795Z,2.67
2018-12-11T18:47:08.755Z,3.20
2018-12-11T18:49:55.756Z,3.12
2018-12-11T18:52:43.192Z,2.57
2018-12-11T18:55:30.178Z,2.20
2018-12-11T18:58:17.220Z,2.37
2018-12-11T19:01:04.202Z,2.75
2018-12-11T19:03:52.702Z,2.20
2018-12-11T19:06:45.473Z,3.25
2018-12-11T19:09:32.754Z,3.10
2018-12-11T19:12:23.359Z,2.57
2018-12-11T19:15:11.062Z,2.67
2018-12-11T19:18:01.058Z,2.40
2018-12-11T19:20:50.178Z,2.10
2018-12-11T19:23:37.015Z,2.20
2018-12-11T19:26:29.173Z,2.60
2018-12-11T19:29:16.577Z,2.83
2018-12-11T19:32:09.496Z,2.60
2018-12-11T19:35:04.524Z,2.00
2018-12-11T19:37:57.506Z,2.20
2018-12-11T19:40:44.783Z,2.80
2018-12-11T19:43:32.357Z,3.00
2018-12-11T19:46:20.500Z,3.00
2018-12-11T19:49:07.135Z,2.27
2018-12-11T19:51:53.848Z,3.03
2018-12-11T19:54:43.372Z,2.57
2018-12-11T19:57:29.976Z,2.43
2018-12-11T20:00:23.778Z,3.03
2018-12-11T20:03:15.013Z,3.30
2018-12-11T20:06:01.734Z,5.07
2018-12-11T20:08:50.657Z,4.10
2018-12-11T20:11:39.355Z,4.03
2018-12-11T20:14:26.544Z,3.43
2018-12-11T20:17:14.112Z,4.97
2018-12-11T20:20:01.651Z,4.40
2018-12-11T20:22:50.468Z,3.47
2018-12-11T20:25:38.001Z,3.87
2018-12-11T20:31:31.532Z,4.95
2018-12-11T20:34:18.926Z,4.20
2018-12-11T20:37:05.589Z,4.77
2018-12-11T20:39:52.537Z,4.95
2018-12-11T20:42:40.598Z,3.77
2018-12-11T20:45:28.002Z,3.47
2018-12-11T20:48:17.715Z,3.20
2018-12-11T20:51:04.311Z,3.60
2018-12-11T20:53:54.000Z,3.60
2018-12-11T20:56:41.148Z,4.23
2018-12-11T20:59:27.865Z,4.07
2018-12-11T21:02:25.740Z,5.22
2018-12-11T21:05:13.309Z,4.70
2018-12-11T21:08:06.908Z,3.80
2018-12-11T21:10:55.245Z,5.25
2018-12-11T21:13:42.871Z,3.97
2018-12-11T21:16:32.780Z,3.87
2018-12-11T21:19:23.203Z,4.30
2018-12-11T21:22:18.203Z,3.63
2018-12-11T21:25:05.485Z,3.73
2018-12-11T21:27:52.805Z,3.50
2018-12-11T21:30:58.961Z,4.27
2018-12-11T21:33:49.451Z,4.10
2018-12-11T21:36:36.462Z,4.43
2018-12-11T21:39:24.836Z,4.50
2018-12-11T21:42:12.995Z,4.97
2018-12-11T21:45:16.572Z,4.53
2018-12-11T21:48:03.209Z,4.07
2018-12-11T21:50:52.112Z,5.87
2018-12-11T21:53:39.982Z,4.73
2018-12-11T21:56:28.315Z,5.45
2018-12-11T21:59:26.509Z,5.20
2018-12-11T22:02:17.380Z,4.70
2018-12-11T22:05:04.573Z,4.97
2018-12-11T22:07:51.730Z,4.70
2018-12-11T22:10:38.491Z,4.40
2018-12-11T22:13:25.511Z,7.03
2018-12-11T22:16:12.572Z,5.17
2018-12-11T22:19:06.015Z,5.13
2018-12-11T22:21:53.005Z,7.10
2018-12-11T22:27:47.445Z,5.17
2018-12-11T22:30:34.410Z,5.10
2018-12-11T22:33:21.120Z,5.03
2018-12-11T22:36:09.439Z,5.80
2018-12-11T22:39:00.702Z,5.30
2018-12-11T22:41:47.684Z,5.67
2018-12-11T22:44:34.767Z,5.43
2018-12-11T22:47:21.691Z,7.93
2018-12-11T22:50:10.312Z,5.73
2018-12-11T22:53:03.268Z,6.27
2018-12-11T22:55:52.985Z,6.10
2018-12-11T22:58:41.696Z,5.27
2018-12-11T23:01:28.808Z,5.77
2018-12-11T23:04:15.521Z,8.48
2018-12-11T23:07:06.681Z,8.07
2018-12-11T23:10:01.634Z,8.02
2018-12-11T23:12:49.334Z,7.22
2018-12-11T23:15:39.307Z,5.47
2018-12-11T23:18:26.765Z,5.87
2018-12-11T23:21:17.422Z,4.90
2018-12-11T23:24:07.875Z,4.80
2018-12-11T23:26:55.631Z,7.20
2018-12-11T23:29:42.814Z,5.10
2018-12-11T23:32:30.059Z,5.40
2018-12-11T23:35:18.946Z,4.77
2018-12-11T23:38:05.642Z,4.70
2018-12-11T23:40:52.528Z,5.37
2018-12-11T23:43:39.565Z,4.60
2018-12-11T23:46:28.163Z,5.13
2018-12-11T23:49:15.666Z,3.93
2018-12-11T23:52:03.102Z,6.55
2018-12-11T23:54:50.192Z,5.30
2018-12-11T23:57:37.125Z,4.60
